sensor_id;sensor_type;location;lat;lon;timestamp;pressure;altitude;pressure_sealevel;temperature;humidity
29121;BME280;16191;49.548;8.658;2023-03-19T00:01:49;100076.97;;;11.00;79.96
29121;BME280;16191;49.548;8.658;2023-03-19T00:04:15;100080.44;;;11.01;78.58
29121;BME280;16191;49.548;8.658;2023-03-19T00:06:43;100082.25;;;10.98;78.87
29121;BME280;16191;49.548;8.658;2023-03-19T00:09:10;100081.81;;;11.08;77.87
29121;BME280;16191;49.548;8.658;2023-03-19T00:11:37;100072.78;;;10.96;80.01
29121;BME280;16191;49.548;8.658;2023-03-19T00:14:04;100075.34;;;10.97;80.66
29121;BME280;16191;49.548;8.658;2023-03-19T00:16:31;100075.41;;;10.96;80.43
29121;BME280;16191;49.548;8.658;2023-03-19T00:18:58;100078.72;;;10.99;80.68
29121;BME280;16191;49.548;8.658;2023-03-19T00:21:25;100071.16;;;10.93;82.02
29121;BME280;16191;49.548;8.658;2023-03-19T00:23:52;100071.94;;;10.95;80.95
29121;BME280;16191;49.548;8.658;2023-03-19T00:26:19;100066.72;;;10.95;82.69
29121;BME280;16191;49.548;8.658;2023-03-19T00:28:46;100067.91;;;10.88;85.32
29121;BME280;16191;49.548;8.658;2023-03-19T00:31:14;100067.41;;;10.80;88.14
29121;BME280;16191;49.548;8.658;2023-03-19T00:33:42;100068.34;;;10.79;90.67
29121;BME280;16191;49.548;8.658;2023-03-19T00:36:09;100063.59;;;10.87;92.01
29121;BME280;16191;49.548;8.658;2023-03-19T00:38:36;100068.75;;;10.89;90.56
29121;BME280;16191;49.548;8.658;2023-03-19T00:41:04;100063.91;;;10.81;92.00
29121;BME280;16191;49.548;8.658;2023-03-19T00:43:31;100074.03;;;10.87;90.01
29121;BME280;16191;49.548;8.658;2023-03-19T00:45:57;100079.78;;;10.95;90.01
29121;BME280;16191;49.548;8.658;2023-03-19T00:48:24;100084.88;;;10.98;89.35
29121;BME280;16191;49.548;8.658;2023-03-19T00:50:51;100093.47;;;11.01;89.28
29121;BME280;16191;49.548;8.658;2023-03-19T00:53:18;100095.25;;;11.00;90.05
29121;BME280;16191;49.548;8.658;2023-03-19T00:55:45;100095.31;;;10.98;90.26
29121;BME280;16191;49.548;8.658;2023-03-19T00:58:13;100095.38;;;10.97;100.00
29121;BME280;16191;49.548;8.658;2023-03-19T01:00:39;100080.97;;;10.88;100.00
29121;BME280;16191;49.548;8.658;2023-03-19T01:03:07;100066.56;;;10.80;100.00
29121;BME280;16191;49.548;8.658;2023-03-19T01:05:34;100064.38;;;10.89;100.00
29121;BME280;16191;49.548;8.658;2023-03-19T01:08:01;100055.44;;;10.95;100.00
29121;BME280;16191;49.548;8.658;2023-03-19T01:10:28;100063.41;;;10.92;100.00
29121;BME280;16191;49.548;8.658;2023-03-19T01:12:55;100055.69;;;10.89;100.00
29121;BME280;16191;49.548;8.658;2023-03-19T01:15:22;100049.44;;;10.93;100.00
29121;BME280;16191;49.548;8.658;2023-03-19T01:17:48;100047.22;;;10.84;100.00
29121;BME280;16191;49.548;8.658;2023-03-19T01:20:16;100050.13;;;10.78;100.00
29121;BME280;16191;49.548;8.658;2023-03-19T01:22:44;100060.91;;;10.70;100.00
29121;BME280;16191;49.548;8.658;2023-03-19T01:25:12;100069.50;;;10.72;100.00
29121;BME280;16191;49.548;8.658;2023-03-19T01:27:46;100067.88;;;10.70;100.00
29121;BME280;16191;49.548;8.658;2023-03-19T01:30:13;100069.56;;;10.71;100.00
29121;BME280;16191;49.548;8.658;2023-03-19T01:33:12;100075.72;;;10.70;100.00
29121;BME280;16191;49.548;8.658;2023-03-19T01:35:52;100078.50;;;10.65;100.00
29121;BME280;16191;49.548;8.658;2023-03-19T01:38:21;100082.31;;;10.58;100.00
29121;BME280;16191;49.548;8.658;2023-03-19T01:40:49;100085.78;;;10.58;100.00
29121;BME280;16191;49.548;8.658;2023-03-19T01:43:19;100085.13;;;10.53;100.00
29121;BME280;16191;49.548;8.658;2023-03-19T01:46:02;100093.28;;;10.46;100.00
29121;BME280;16191;49.548;8.658;2023-03-19T01:48:52;100097.91;;;10.39;100.00
29121;BME280;16191;49.548;8.658;2023-03-19T01:51:23;100093.81;;;10.34;100.00
29121;BME280;16191;49.548;8.658;2023-03-19T01:54:11;100093.88;;;10.32;100.00
29121;BME280;16191;49.548;8.658;2023-03-19T01:56:58;100097.50;;;10.28;100.00
29121;BME280;16191;49.548;8.658;2023-03-19T02:00:02;100091.44;;;10.27;100.00
29121;BME280;16191;49.548;8.658;2023-03-19T02:02:43;100085.56;;;10.22;100.00
29121;BME280;16191;49.548;8.658;2023-03-19T02:05:35;100087.25;;;10.23;100.00
29121;BME280;16191;49.548;8.658;2023-03-19T02:08:08;100091.28;;;10.10;100.00
29121;BME280;16191;49.548;8.658;2023-03-19T02:10:38;100087.94;;;10.07;100.00
29121;BME280;16191;49.548;8.658;2023-03-19T02:13:05;100103.69;;;10.04;100.00
29121;BME280;16191;49.548;8.658;2023-03-19T02:15:32;100107.09;;;10.06;100.00
29121;BME280;16191;49.548;8.658;2023-03-19T02:17:59;100111.53;;;10.04;100.00
29121;BME280;16191;49.548;8.658;2023-03-19T02:23:16;100125.00;;;9.93;100.00
29121;BME280;16191;49.548;8.658;2023-03-19T02:26:05;100121.72;;;9.88;100.00
29121;BME280;16191;49.548;8.658;2023-03-19T02:28:52;100128.13;;;9.79;100.00
29121;BME280;16191;49.548;8.658;2023-03-19T02:31:50;100119.69;;;9.74;100.00
29121;BME280;16191;49.548;8.658;2023-03-19T02:34:39;100124.91;;;9.74;100.00
29121;BME280;16191;49.548;8.658;2023-03-19T02:37:28;100130.38;;;9.67;100.00
29121;BME280;16191;49.548;8.658;2023-03-19T02:40:21;100132.19;;;9.65;100.00
29121;BME280;16191;49.548;8.658;2023-03-19T02:43:09;100124.63;;;9.58;100.00
29121;BME280;16191;49.548;8.658;2023-03-19T02:45:36;100120.47;;;9.53;100.00
29121;BME280;16191;49.548;8.658;2023-03-19T02:48:03;100131.00;;;9.51;100.00
29121;BME280;16191;49.548;8.658;2023-03-19T02:50:29;100127.47;;;9.52;100.00
29121;BME280;16191;49.548;8.658;2023-03-19T02:52:56;100129.88;;;9.57;100.00
29121;BME280;16191;49.548;8.658;2023-03-19T02:55:23;100124.56;;;9.60;100.00
29121;BME280;16191;49.548;8.658;2023-03-19T02:57:49;100117.81;;;9.54;100.00
29121;BME280;16191;49.548;8.658;2023-03-19T03:00:16;100120.25;;;9.59;100.00
29121;BME280;16191;49.548;8.658;2023-03-19T03:02:44;100126.31;;;9.59;100.00
29121;BME280;16191;49.548;8.658;2023-03-19T03:05:11;100123.47;;;9.66;100.00
29121;BME280;16191;49.548;8.658;2023-03-19T03:07:39;100127.91;;;9.63;100.00
29121;BME280;16191;49.548;8.658;2023-03-19T03:10:06;100123.72;;;9.59;100.00
29121;BME280;16191;49.548;8.658;2023-03-19T03:12:33;100125.28;;;9.63;100.00
29121;BME280;16191;49.548;8.658;2023-03-19T03:15:00;100131.28;;;9.66;100.00
29121;BME280;16191;49.548;8.658;2023-03-19T03:17:27;100128.75;;;9.64;100.00
29121;BME280;16191;49.548;8.658;2023-03-19T03:19:55;100132.31;;;9.61;100.00
29121;BME280;16191;49.548;8.658;2023-03-19T03:22:22;100136.50;;;9.66;100.00
29121;BME280;16191;49.548;8.658;2023-03-19T03:24:49;100135.50;;;9.70;100.00
29121;BME280;16191;49.548;8.658;2023-03-19T03:27:15;100129.38;;;9.71;100.00
29121;BME280;16191;49.548;8.658;2023-03-19T03:29:42;100127.66;;;9.70;100.00
29121;BME280;16191;49.548;8.658;2023-03-19T03:32:09;100129.59;;;9.65;100.00
29121;BME280;16191;49.548;8.658;2023-03-19T03:34:35;100130.50;;;9.63;100.00
29121;BME280;16191;49.548;8.658;2023-03-19T03:37:02;100123.59;;;9.62;100.00
29121;BME280;16191;49.548;8.658;2023-03-19T03:39:29;100129.53;;;9.66;100.00
29121;BME280;16191;49.548;8.658;2023-03-19T03:41:56;100136.44;;;9.67;100.00
29121;BME280;16191;49.548;8.658;2023-03-19T03:44:22;100133.72;;;9.70;100.00
29121;BME280;16191;49.548;8.658;2023-03-19T03:46:49;100134.53;;;9.72;100.00
29121;BME280;16191;49.548;8.658;2023-03-19T03:49:16;100130.09;;;9.74;100.00
29121;BME280;16191;49.548;8.658;2023-03-19T03:51:42;100136.22;;;9.73;100.00
29121;BME280;16191;49.548;8.658;2023-03-19T03:54:09;100139.72;;;9.72;100.00
29121;BME280;16191;49.548;8.658;2023-03-19T03:56:36;100137.84;;;9.76;100.00
29121;BME280;16191;49.548;8.658;2023-03-19T03:59:02;100146.66;;;9.73;100.00
29121;BME280;16191;49.548;8.658;2023-03-19T04:01:29;100149.09;;;9.76;100.00
29121;BME280;16191;49.548;8.658;2023-03-19T04:03:56;100149.94;;;9.77;100.00
29121;BME280;16191;49.548;8.658;2023-03-19T04:06:24;100148.25;;;9.76;100.00
29121;BME280;16191;49.548;8.658;2023-03-19T04:09:29;100151.59;;;9.79;100.00
29121;BME280;16191;49.548;8.658;2023-03-19T04:11:57;100154.19;;;9.79;100.00
29121;BME280;16191;49.548;8.658;2023-03-19T04:14:24;100157.66;;;9.80;100.00
29121;BME280;16191;49.548;8.658;2023-03-19T04:16:50;100162.91;;;9.78;100.00
29121;BME280;16191;49.548;8.658;2023-03-19T04:19:18;100166.25;;;9.82;100.00
29121;BME280;16191;49.548;8.658;2023-03-19T04:21:45;100160.38;;;9.77;100.00
29121;BME280;16191;49.548;8.658;2023-03-19T04:24:13;100155.44;;;9.71;100.00
29121;BME280;16191;49.548;8.658;2023-03-19T04:26:39;100161.53;;;9.70;100.00
29121;BME280;16191;49.548;8.658;2023-03-19T04:29:07;100158.81;;;9.73;100.00
29121;BME280;16191;49.548;8.658;2023-03-19T04:31:36;100159.72;;;9.72;100.00
29121;BME280;16191;49.548;8.658;2023-03-19T04:34:03;100162.19;;;9.75;100.00
29121;BME280;16191;49.548;8.658;2023-03-19T04:36:31;100155.16;;;9.77;100.00
29121;BME280;16191;49.548;8.658;2023-03-19T04:38:58;100155.09;;;9.78;100.00
29121;BME280;16191;49.548;8.658;2023-03-19T04:41:25;100156.06;;;9.76;100.00
29121;BME280;16191;49.548;8.658;2023-03-19T04:44:03;100164.03;;;9.73;100.00
29121;BME280;16191;49.548;8.658;2023-03-19T04:46:31;100174.47;;;9.73;100.00
29121;BME280;16191;49.548;8.658;2023-03-19T04:48:57;100172.56;;;9.76;100.00
29121;BME280;16191;49.548;8.658;2023-03-19T04:51:26;100177.72;;;9.78;100.00
29121;BME280;16191;49.548;8.658;2023-03-19T04:53:53;100183.13;;;9.95;100.00
29121;BME280;16191;49.548;8.658;2023-03-19T04:56:20;100180.28;;;10.01;100.00
29121;BME280;16191;49.548;8.658;2023-03-19T04:58:47;100180.28;;;10.01;100.00
29121;BME280;16191;49.548;8.658;2023-03-19T05:01:14;100182.16;;;10.19;100.00
29121;BME280;16191;49.548;8.658;2023-03-19T05:03:56;100184.09;;;10.14;100.00
29121;BME280;16191;49.548;8.658;2023-03-19T05:06:23;100183.56;;;10.06;100.00
29121;BME280;16191;49.548;8.658;2023-03-19T05:08:50;100188.16;;;10.00;100.00
29121;BME280;16191;49.548;8.658;2023-03-19T05:11:18;100183.72;;;10.02;100.00
29121;BME280;16191;49.548;8.658;2023-03-19T05:14:01;100192.41;;;10.02;100.00
29121;BME280;16191;49.548;8.658;2023-03-19T05:16:36;100186.28;;;10.03;100.00
29121;BME280;16191;49.548;8.658;2023-03-19T05:19:04;100191.25;;;10.09;100.00
29121;BME280;16191;49.548;8.658;2023-03-19T05:21:31;100184.94;;;10.15;100.00
29121;BME280;16191;49.548;8.658;2023-03-19T05:23:58;100184.81;;;10.18;100.00
29121;BME280;16191;49.548;8.658;2023-03-19T05:26:26;100189.31;;;10.14;100.00
29121;BME280;16191;49.548;8.658;2023-03-19T05:29:11;100193.41;;;10.21;100.00
29121;BME280;16191;49.548;8.658;2023-03-19T05:31:54;100191.63;;;10.22;100.00
29121;BME280;16191;49.548;8.658;2023-03-19T05:34:21;100194.78;;;10.30;100.00
29121;BME280;16191;49.548;8.658;2023-03-19T05:36:48;100192.25;;;10.28;100.00
29121;BME280;16191;49.548;8.658;2023-03-19T05:39:17;100193.09;;;10.29;100.00
29121;BME280;16191;49.548;8.658;2023-03-19T05:41:44;100192.31;;;10.27;100.00
29121;BME280;16191;49.548;8.658;2023-03-19T05:44:15;100189.69;;;10.27;100.00
29121;BME280;16191;49.548;8.658;2023-03-19T05:47:05;100192.00;;;10.35;100.00
29121;BME280;16191;49.548;8.658;2023-03-19T05:49:34;100189.28;;;10.38;100.00
29121;BME280;16191;49.548;8.658;2023-03-19T05:52:02;100191.94;;;10.36;100.00
29121;BME280;16191;49.548;8.658;2023-03-19T05:54:29;100194.09;;;10.47;100.00
29121;BME280;16191;49.548;8.658;2023-03-19T05:57:05;100197.31;;;10.53;100.00
29121;BME280;16191;49.548;8.658;2023-03-19T06:00:06;100213.63;;;10.58;100.00
29121;BME280;16191;49.548;8.658;2023-03-19T06:02:34;100220.41;;;10.62;100.00
29121;BME280;16191;49.548;8.658;2023-03-19T06:05:16;100219.63;;;10.60;100.00
29121;BME280;16191;49.548;8.658;2023-03-19T06:07:43;100226.63;;;10.60;100.00
29121;BME280;16191;49.548;8.658;2023-03-19T06:10:20;100231.97;;;10.57;100.00
29121;BME280;16191;49.548;8.658;2023-03-19T06:12:51;100226.53;;;10.61;100.00
29121;BME280;16191;49.548;8.658;2023-03-19T06:15:36;100234.44;;;10.60;100.00
29121;BME280;16191;49.548;8.658;2023-03-19T06:18:16;100237.81;;;10.62;100.00
29121;BME280;16191;49.548;8.658;2023-03-19T06:20:45;100235.09;;;10.65;100.00
29121;BME280;16191;49.548;8.658;2023-03-19T06:23:13;100238.59;;;10.64;100.00
29121;BME280;16191;49.548;8.658;2023-03-19T06:25:42;100234.34;;;10.61;100.00
29121;BME280;16191;49.548;8.658;2023-03-19T06:28:09;100235.09;;;10.65;100.00
29121;BME280;16191;49.548;8.658;2023-03-19T06:30:38;100234.13;;;10.68;100.00
29121;BME280;16191;49.548;8.658;2023-03-19T06:33:24;100235.09;;;10.65;100.00
29121;BME280;16191;49.548;8.658;2023-03-19T06:35:53;100232.16;;;10.73;100.00
29121;BME280;16191;49.548;8.658;2023-03-19T06:38:20;100232.78;;;10.79;100.00
29121;BME280;16191;49.548;8.658;2023-03-19T06:40:46;100230.28;;;10.76;100.00
29121;BME280;16191;49.548;8.658;2023-03-19T06:43:13;100230.94;;;10.81;100.00
29121;BME280;16191;49.548;8.658;2023-03-19T06:45:40;100235.88;;;10.87;100.00
29121;BME280;16191;49.548;8.658;2023-03-19T06:48:07;100231.31;;;10.92;100.00
29121;BME280;16191;49.548;8.658;2023-03-19T06:50:33;100236.47;;;10.94;100.00
29121;BME280;16191;49.548;8.658;2023-03-19T06:53:00;100235.44;;;10.98;100.00
29121;BME280;16191;49.548;8.658;2023-03-19T06:55:27;100238.50;;;11.08;100.00
29121;BME280;16191;49.548;8.658;2023-03-19T06:57:56;100238.44;;;11.09;100.00
29121;BME280;16191;49.548;8.658;2023-03-19T07:00:23;100244.38;;;11.13;100.00
29121;BME280;16191;49.548;8.658;2023-03-19T07:02:50;100243.34;;;11.17;100.00
29121;BME280;16191;49.548;8.658;2023-03-19T07:05:16;100244.13;;;11.19;100.00
29121;BME280;16191;49.548;8.658;2023-03-19T07:07:43;100253.38;;;11.26;100.00
29121;BME280;16191;49.548;8.658;2023-03-19T07:10:10;100255.00;;;11.28;100.00
29121;BME280;16191;49.548;8.658;2023-03-19T07:12:36;100246.72;;;11.39;100.00
29121;BME280;16191;49.548;8.658;2023-03-19T07:15:03;100247.00;;;11.52;100.00
29121;BME280;16191;49.548;8.658;2023-03-19T07:17:30;100258.16;;;11.55;100.00
29121;BME280;16191;49.548;8.658;2023-03-19T07:19:56;100254.84;;;11.52;100.00
29121;BME280;16191;49.548;8.658;2023-03-19T07:22:23;100261.38;;;11.62;100.00
29121;BME280;16191;49.548;8.658;2023-03-19T07:24:50;100259.47;;;11.65;100.00
29121;BME280;16191;49.548;8.658;2023-03-19T07:27:17;100262.81;;;11.69;100.00
29121;BME280;16191;49.548;8.658;2023-03-19T07:29:43;100259.34;;;11.68;100.00
29121;BME280;16191;49.548;8.658;2023-03-19T07:32:10;100263.34;;;11.76;100.00
29121;BME280;16191;49.548;8.658;2023-03-19T07:34:37;100254.63;;;11.77;100.00
29121;BME280;16191;49.548;8.658;2023-03-19T07:37:03;100260.50;;;11.82;100.00
29121;BME280;16191;49.548;8.658;2023-03-19T07:39:30;100262.00;;;11.87;100.00
29121;BME280;16191;49.548;8.658;2023-03-19T07:41:57;100260.28;;;11.86;100.00
29121;BME280;16191;49.548;8.658;2023-03-19T07:44:23;100265.53;;;11.86;100.00
29121;BME280;16191;49.548;8.658;2023-03-19T07:46:50;100266.56;;;12.01;97.79
29121;BME280;16191;49.548;8.658;2023-03-19T07:49:16;100266.22;;;12.09;95.49
29121;BME280;16191;49.548;8.658;2023-03-19T07:51:43;100261.06;;;12.07;95.30
29121;BME280;16191;49.548;8.658;2023-03-19T07:54:10;100272.16;;;12.12;93.12
29121;BME280;16191;49.548;8.658;2023-03-19T07:56:36;100268.84;;;12.09;92.53
29121;BME280;16191;49.548;8.658;2023-03-19T07:59:03;100273.69;;;12.16;93.59
29121;BME280;16191;49.548;8.658;2023-03-19T08:01:29;100276.16;;;12.19;91.43
29121;BME280;16191;49.548;8.658;2023-03-19T08:03:56;100270.94;;;12.19;93.29
29121;BME280;16191;49.548;8.658;2023-03-19T08:06:22;100275.75;;;12.28;91.12
29121;BME280;16191;49.548;8.658;2023-03-19T08:08:49;100275.25;;;12.20;93.53
29121;BME280;16191;49.548;8.658;2023-03-19T08:11:16;100270.13;;;12.36;90.87
29121;BME280;16191;49.548;8.658;2023-03-19T08:13:43;100267.16;;;12.44;89.71
29121;BME280;16191;49.548;8.658;2023-03-19T08:16:09;100272.97;;;12.50;88.57
29121;BME280;16191;49.548;8.658;2023-03-19T08:18:36;100273.34;;;12.60;88.75
29121;BME280;16191;49.548;8.658;2023-03-19T08:21:03;100272.44;;;12.78;86.25
29121;BME280;16191;49.548;8.658;2023-03-19T08:23:30;100266.38;;;12.95;86.51
29121;BME280;16191;49.548;8.658;2023-03-19T08:25:57;100266.31;;;13.31;83.35
29121;BME280;16191;49.548;8.658;2023-03-19T08:28:23;100258.94;;;13.55;79.14
29121;BME280;16191;49.548;8.658;2023-03-19T08:30:50;100258.84;;;13.56;79.63
29121;BME280;16191;49.548;8.658;2023-03-19T08:33:17;100262.41;;;13.55;79.05
29121;BME280;16191;49.548;8.658;2023-03-19T08:35:44;100272.53;;;13.94;75.45
29121;BME280;16191;49.548;8.658;2023-03-19T08:38:10;100263.84;;;14.41;71.37
29121;BME280;16191;49.548;8.658;2023-03-19T08:40:37;100271.25;;;14.33;69.28
29121;BME280;16191;49.548;8.658;2023-03-19T08:43:04;100261.69;;;14.63;67.26
29121;BME280;16191;49.548;8.658;2023-03-19T08:45:30;100270.25;;;14.67;67.12
29121;BME280;16191;49.548;8.658;2023-03-19T08:47:57;100257.41;;;14.92;67.07
29121;BME280;16191;49.548;8.658;2023-03-19T08:50:23;100274.56;;;14.68;64.49
29121;BME280;16191;49.548;8.658;2023-03-19T08:52:50;100278.91;;;14.69;65.22
29121;BME280;16191;49.548;8.658;2023-03-19T08:55:16;100277.38;;;14.95;65.18
29121;BME280;16191;49.548;8.658;2023-03-19T08:57:43;100281.22;;;14.89;62.68
29121;BME280;16191;49.548;8.658;2023-03-19T09:00:10;100286.09;;;14.95;64.87
29121;BME280;16191;49.548;8.658;2023-03-19T09:02:37;100284.53;;;14.93;63.58
29121;BME280;16191;49.548;8.658;2023-03-19T09:05:05;100278.97;;;15.27;62.68
29121;BME280;16191;49.548;8.658;2023-03-19T09:07:32;100281.16;;;15.05;62.70
29121;BME280;16191;49.548;8.658;2023-03-19T09:09:59;100279.72;;;14.99;62.39
29121;BME280;16191;49.548;8.658;2023-03-19T09:12:26;100271.09;;;14.97;62.30
29121;BME280;16191;49.548;8.658;2023-03-19T09:14:52;100276.78;;;15.20;63.87
29121;BME280;16191;49.548;8.658;2023-03-19T09:17:19;100275.72;;;15.81;61.17
29121;BME280;16191;49.548;8.658;2023-03-19T09:19:45;100280.38;;;16.04;60.41
29121;BME280;16191;49.548;8.658;2023-03-19T09:22:12;100283.03;;;16.18;58.23
29121;BME280;16191;49.548;8.658;2023-03-19T09:24:38;100284.94;;;16.43;57.36
29121;BME280;16191;49.548;8.658;2023-03-19T09:27:06;100279.31;;;16.62;56.52
29121;BME280;16191;49.548;8.658;2023-03-19T09:29:32;100280.25;;;16.61;55.76
29121;BME280;16191;49.548;8.658;2023-03-19T09:31:59;100275.06;;;16.73;55.24
29121;BME280;16191;49.548;8.658;2023-03-19T09:34:26;100278.56;;;16.60;53.74
29121;BME280;16191;49.548;8.658;2023-03-19T09:36:53;100275.81;;;16.75;55.86
29121;BME280;16191;49.548;8.658;2023-03-19T09:39:20;100275.94;;;16.87;54.73
29121;BME280;16191;49.548;8.658;2023-03-19T09:41:59;100280.78;;;16.80;53.67
29121;BME280;16191;49.548;8.658;2023-03-19T09:44:37;100288.69;;;16.93;53.25
29121;BME280;16191;49.548;8.658;2023-03-19T09:52:45;100289.53;;;16.93;54.08
29121;BME280;16191;49.548;8.658;2023-03-19T09:55:44;100286.25;;;16.36;53.46
29121;BME280;16191;49.548;8.658;2023-03-19T09:58:15;100283.38;;;16.53;54.50
29121;BME280;16191;49.548;8.658;2023-03-19T10:00:46;100285.38;;;16.23;55.73
29121;BME280;16191;49.548;8.658;2023-03-19T10:06:11;100290.31;;;16.27;55.25
29121;BME280;16191;49.548;8.658;2023-03-19T10:17:24;100278.59;;;16.87;53.89
29121;BME280;16191;49.548;8.658;2023-03-19T10:20:09;100280.28;;;16.88;51.84
29121;BME280;16191;49.548;8.658;2023-03-19T10:22:48;100275.38;;;17.08;51.54
29121;BME280;16191;49.548;8.658;2023-03-19T10:25:25;100277.66;;;17.13;51.17
29121;BME280;16191;49.548;8.658;2023-03-19T10:28:06;100267.75;;;17.55;50.51
29121;BME280;16191;49.548;8.658;2023-03-19T10:30:36;100274.34;;;18.24;49.83
29121;BME280;16191;49.548;8.658;2023-03-19T10:33:22;100293.31;;;17.29;49.68
29121;BME280;16191;49.548;8.658;2023-03-19T10:35:59;100278.22;;;17.56;51.15
29121;BME280;16191;49.548;8.658;2023-03-19T10:38:27;100288.94;;;17.02;50.50
29121;BME280;16191;49.548;8.658;2023-03-19T10:43:50;100274.09;;;17.39;49.63
29121;BME280;16191;49.548;8.658;2023-03-19T10:46:17;100280.44;;;17.62;48.78
29121;BME280;16191;49.548;8.658;2023-03-19T10:48:45;100272.69;;;16.96;49.20
29121;BME280;16191;49.548;8.658;2023-03-19T10:51:14;100270.94;;;17.85;48.13
29121;BME280;16191;49.548;8.658;2023-03-19T10:53:42;100274.22;;;17.76;46.51
29121;BME280;16191;49.548;8.658;2023-03-19T10:56:16;100271.06;;;17.45;47.08
29121;BME280;16191;49.548;8.658;2023-03-19T10:59:03;100273.53;;;18.10;46.59
29121;BME280;16191;49.548;8.658;2023-03-19T11:01:41;100279.69;;;18.35;46.37
29121;BME280;16191;49.548;8.658;2023-03-19T11:04:21;100274.50;;;18.70;46.48
29121;BME280;16191;49.548;8.658;2023-03-19T11:06:55;100269.78;;;18.26;45.49
29121;BME280;16191;49.548;8.658;2023-03-19T11:09:34;100266.88;;;18.18;46.30
29121;BME280;16191;49.548;8.658;2023-03-19T11:14:35;100278.00;;;17.97;46.39
29121;BME280;16191;49.548;8.658;2023-03-19T11:17:20;100268.94;;;17.63;47.27
29121;BME280;16191;49.548;8.658;2023-03-19T11:19:50;100260.47;;;18.57;46.88
29121;BME280;16191;49.548;8.658;2023-03-19T11:22:36;100262.44;;;18.90;46.55
29121;BME280;16191;49.548;8.658;2023-03-19T11:25:15;100260.78;;;19.00;46.17
29121;BME280;16191;49.548;8.658;2023-03-19T11:28:18;100252.03;;;18.99;45.37
29121;BME280;16191;49.548;8.658;2023-03-19T11:33:48;100244.47;;;17.74;46.56
29121;BME280;16191;49.548;8.658;2023-03-19T11:36:22;100252.72;;;18.66;44.85
29121;BME280;16191;49.548;8.658;2023-03-19T11:50:25;100241.00;;;17.73;47.76
29121;BME280;16191;49.548;8.658;2023-03-19T11:53:06;100243.94;;;17.18;48.88
29121;BME280;16191;49.548;8.658;2023-03-19T12:02:23;100234.22;;;17.57;49.41
29121;BME280;16191;49.548;8.658;2023-03-19T12:07:33;100234.88;;;17.22;49.19
29121;BME280;16191;49.548;8.658;2023-03-19T12:15:26;100232.22;;;17.09;50.59
29121;BME280;16191;49.548;8.658;2023-03-19T12:20:27;100247.22;;;16.69;53.31
29121;BME280;16191;49.548;8.658;2023-03-19T12:23:23;100241.09;;;16.69;52.48
29121;BME280;16191;49.548;8.658;2023-03-19T12:26:07;100248.28;;;16.67;52.93
29121;BME280;16191;49.548;8.658;2023-03-19T12:34:30;100244.66;;;16.14;55.29
29121;BME280;16191;49.548;8.658;2023-03-19T12:37:12;100239.75;;;16.49;54.87
29121;BME280;16191;49.548;8.658;2023-03-19T12:39:46;100243.97;;;16.52;54.52
29121;BME280;16191;49.548;8.658;2023-03-19T12:42:18;100237.84;;;16.51;53.04
29121;BME280;16191;49.548;8.658;2023-03-19T12:44:47;100246.97;;;16.33;52.75
29121;BME280;16191;49.548;8.658;2023-03-19T12:47:37;100243.44;;;16.20;53.47
29121;BME280;16191;49.548;8.658;2023-03-19T12:50:07;100245.25;;;16.32;55.73
29121;BME280;16191;49.548;8.658;2023-03-19T12:52:43;100250.72;;;16.29;54.30
29121;BME280;16191;49.548;8.658;2023-03-19T12:55:18;100241.94;;;16.42;55.87
29121;BME280;16191;49.548;8.658;2023-03-19T12:57:52;100251.66;;;16.28;56.25
29121;BME280;16191;49.548;8.658;2023-03-19T13:00:35;100243.88;;;16.26;58.13
29121;BME280;16191;49.548;8.658;2023-03-19T13:06:22;100248.19;;;16.27;59.59
29121;BME280;16191;49.548;8.658;2023-03-19T13:11:38;100252.59;;;16.00;60.39
29121;BME280;16191;49.548;8.658;2023-03-19T13:14:15;100257.41;;;15.93;59.76
29121;BME280;16191;49.548;8.658;2023-03-19T13:16:59;100258.72;;;16.00;59.96
29121;BME280;16191;49.548;8.658;2023-03-19T13:19:47;100255.03;;;15.89;60.51
29121;BME280;16191;49.548;8.658;2023-03-19T13:22:20;100257.22;;;15.68;60.29
29121;BME280;16191;49.548;8.658;2023-03-19T13:24:49;100275.19;;;15.75;60.96
29121;BME280;16191;49.548;8.658;2023-03-19T13:27:50;100274.59;;;15.70;65.93
29121;BME280;16191;49.548;8.658;2023-03-19T13:30:20;100282.22;;;15.75;70.77
29121;BME280;16191;49.548;8.658;2023-03-19T13:32:50;100295.56;;;15.58;74.47
29121;BME280;16191;49.548;8.658;2023-03-19T13:35:39;100285.19;;;15.55;78.88
29121;BME280;16191;49.548;8.658;2023-03-19T13:38:25;100298.53;;;15.52;82.24
29121;BME280;16191;49.548;8.658;2023-03-19T13:40:55;100295.88;;;14.93;90.98
29121;BME280;16191;49.548;8.658;2023-03-19T13:43:39;100296.06;;;14.90;95.20
29121;BME280;16191;49.548;8.658;2023-03-19T13:48:51;100298.72;;;14.59;99.27
29121;BME280;16191;49.548;8.658;2023-03-19T13:56:18;100297.66;;;14.47;100.00
29121;BME280;16191;49.548;8.658;2023-03-19T14:01:43;100308.91;;;14.49;100.00
29121;BME280;16191;49.548;8.658;2023-03-19T14:06:54;100317.72;;;14.48;100.00
29121;BME280;16191;49.548;8.658;2023-03-19T14:09:37;100314.16;;;14.49;100.00
29121;BME280;16191;49.548;8.658;2023-03-19T14:14:43;100315.34;;;14.44;100.00
29121;BME280;16191;49.548;8.658;2023-03-19T14:17:21;100306.16;;;14.51;100.00
29121;BME280;16191;49.548;8.658;2023-03-19T14:19:51;100309.38;;;14.40;100.00
29121;BME280;16191;49.548;8.658;2023-03-19T14:25:19;100307.94;;;14.34;100.00
29121;BME280;16191;49.548;8.658;2023-03-19T14:27:53;100301.75;;;14.35;100.00
29121;BME280;16191;49.548;8.658;2023-03-19T14:30:26;100304.22;;;14.38;100.00
29121;BME280;16191;49.548;8.658;2023-03-19T14:32:56;100299.28;;;14.17;100.00
29121;BME280;16191;49.548;8.658;2023-03-19T14:35:25;100297.88;;;14.27;100.00